Time;durP1;ratioP1;P1;durP2;ratioP2;P2;SDS_P1;SDS_P2;PMS_P1;PMS_P2;Temp;Humidity;BMP_temperature;BMP_pressure;BME280_temperature;BME280_humidity;BME280_pressure;Samples;Min_cycle;Max_cycle;Signal;HPM_P1;HPM_P2
2022/03/01 00:00:23;;;;;;;27.52;11.57;;;0.20;67.20;;;;;;4184780;28;20041;-72
2022/03/01 00:02:44;;;;;;;;;;;0.20;67.20;;;;;;4184285;28;20159;-72
2022/03/01 00:05:05;;;;;;;29.67;11.55;;;0.20;67.60;;;;;;4185129;28;19912;-72
2022/03/01 00:07:26;;;;;;;28.45;11.93;;;0.20;67.30;;;;;;4182298;28;20055;-72
2022/03/01 00:09:47;;;;;;;27.42;11.43;;;0.20;67.60;;;;;;4157954;28;20467;-72
2022/03/01 00:12:11;;;;;;;29.33;11.95;;;0.20;67.70;;;;;;4181656;28;20332;-72
2022/03/01 00:14:32;;;;;;;29.15;11.48;;;0.20;67.80;;;;;;4185353;28;20830;-73
2022/03/01 00:16:56;;;;;;;26.73;11.55;;;0.30;67.80;;;;;;4182816;28;20540;-73
2022/03/01 00:19:17;;;;;;;25.67;11.32;;;0.30;68.20;;;;;;4182837;28;20080;-73
2022/03/01 00:21:38;;;;;;;30.58;12.38;;;0.30;68.10;;;;;;4179130;28;20025;-72
2022/03/01 00:23:59;;;;;;;29.85;12.30;;;0.30;68.60;;;;;;4185034;28;20143;-72
2022/03/01 00:26:20;;;;;;;27.70;11.95;;;0.30;68.60;;;;;;4186559;28;20035;-73
2022/03/01 00:28:40;;;;;;;30.08;12.02;;;0.30;68.80;;;;;;4183294;28;20063;-72
2022/03/01 00:31:04;;;;;;;31.83;12.82;;;0.40;68.90;;;;;;4186344;28;20101;-72
2022/03/01 00:33:25;;;;;;;;;;;0.30;69.10;;;;;;4184928;28;20552;-72
2022/03/01 00:35:46;;;;;;;31.25;12.75;;;0.40;69.30;;;;;;4186160;28;20443;-72
2022/03/01 00:38:07;;;;;;;31.88;12.63;;;0.40;69.10;;;;;;4182877;28;20037;-72
2022/03/01 00:40:28;;;;;;;29.25;12.10;;;0.40;69.10;;;;;;4183711;28;20029;-72
2022/03/01 00:42:49;;;;;;;31.25;12.77;;;0.40;69.20;;;;;;4180484;28;20025;-72
2022/03/01 00:45:10;;;;;;;31.38;11.73;;;0.40;69.10;;;;;;4168380;28;20539;-72
2022/03/01 00:47:31;;;;;;;35.30;12.77;;;0.40;69.20;;;;;;4179150;28;20554;-72
2022/03/01 00:49:55;;;;;;;34.45;13.55;;;0.40;69.20;;;;;;4183677;28;20490;-72
2022/03/01 00:52:15;;;;;;;26.40;11.30;;;0.40;69.30;;;;;;4181124;28;20432;-72
2022/03/01 00:54:36;;;;;;;28.40;11.90;;;0.40;69.20;;;;;;4184810;28;20064;-72
2022/03/01 00:56:57;;;;;;;29.25;11.55;;;0.40;69.10;;;;;;4166989;28;20033;-72
2022/03/01 00:59:18;;;;;;;29.10;12.05;;;0.40;68.90;;;;;;4184679;28;20090;-71
2022/03/01 01:01:39;;;;;;;29.58;12.43;;;0.40;69.00;;;;;;4185041;28;20199;-72
2022/03/01 01:04:00;;;;;;;26.58;11.77;;;0.40;69.10;;;;;;4182300;28;20032;-72
2022/03/01 01:06:21;;;;;;;25.70;11.05;;;0.50;69.20;;;;;;4180840;28;20674;-72
2022/03/01 01:08:42;;;;;;;34.45;13.05;;;0.40;69.10;;;;;;4183433;28;20040;-72
2022/03/01 01:11:03;;;;;;;32.22;13.65;;;0.40;69.00;;;;;;4182110;28;20029;-71
2022/03/01 01:13:24;;;;;;;26.90;12.07;;;0.50;69.10;;;;;;4185184;28;20028;-72
2022/03/01 01:15:45;;;;;;;28.48;12.77;;;0.40;69.10;;;;;;4184302;28;20119;-72
2022/03/01 01:18:06;;;;;;;29.08;12.98;;;0.40;69.10;;;;;;4181825;28;20110;-71
2022/03/01 01:20:27;;;;;;;32.42;12.82;;;0.40;69.20;;;;;;4187546;28;20044;-71
2022/03/01 01:22:48;;;;;;;29.48;11.40;;;0.40;69.20;;;;;;4181253;28;20043;-71
2022/03/01 01:25:20;;;;;;;29.67;10.68;;;0.40;69.10;;;;;;4183847;28;20044;-72
2022/03/01 01:27:43;;;;;;;30.35;12.18;;;0.40;68.90;;;;;;4180469;28;20032;-72
2022/03/01 01:30:08;;;;;;;30.90;12.15;;;0.40;68.80;;;;;;4184302;28;20097;-72
2022/03/01 01:32:30;;;;;;;32.38;11.90;;;0.40;68.70;;;;;;4183962;28;20561;-72
2022/03/01 01:34:52;;;;;;;28.00;12.50;;;0.40;69.50;;;;;;4186359;28;20111;-72
2022/03/01 01:37:16;;;;;;;32.78;12.85;;;0.30;68.90;;;;;;4178144;28;20040;-72
2022/03/01 01:39:38;;;;;;;31.35;11.85;;;0.30;69.00;;;;;;4185526;28;20048;-72
2022/03/01 01:41:58;;;;;;;27.48;12.27;;;0.30;69.10;;;;;;4185842;28;20036;-72
2022/03/01 01:44:19;;;;;;;29.98;12.55;;;0.30;69.20;;;;;;4179752;28;20127;-72
2022/03/01 01:46:40;;;;;;;27.67;11.00;;;0.30;69.40;;;;;;4187268;28;20033;-71
2022/03/01 01:49:01;;;;;;;32.00;12.43;;;0.30;70.30;;;;;;4188859;28;20040;-72
2022/03/01 01:51:24;;;;;;;30.17;12.32;;;0.30;69.70;;;;;;4185010;28;20434;-72
2022/03/01 01:53:48;;;;;;;28.27;12.40;;;0.30;69.70;;;;;;4184977;28;20036;-72
2022/03/01 01:56:09;;;;;;;31.58;12.38;;;0.20;69.50;;;;;;4172958;28;20463;-72
2022/03/01 01:58:29;;;;;;;30.13;11.90;;;0.30;69.50;;;;;;4167098;28;20092;-72
2022/03/01 02:00:50;;;;;;;27.38;10.80;;;0.20;69.40;;;;;;4185423;28;20037;-72
2022/03/01 02:03:11;;;;;;;29.08;10.68;;;0.20;69.30;;;;;;4176883;28;20175;-72
2022/03/01 02:05:32;;;;;;;27.05;11.02;;;0.20;69.30;;;;;;4169231;28;20032;-72
2022/03/01 02:07:53;;;;;;;28.50;11.23;;;0.20;69.00;;;;;;4182031;28;20029;-72
2022/03/01 02:10:14;;;;;;;30.88;9.95;;;0.20;68.90;;;;;;4180861;28;20036;-72
2022/03/01 02:12:35;;;;;;;31.20;11.02;;;0.20;68.70;;;;;;4184388;28;20119;-72
2022/03/01 02:14:56;;;;;;;27.58;11.02;;;0.20;68.60;;;;;;4187040;28;20121;-72
2022/03/01 02:17:17;;;;;;;29.50;11.80;;;0.20;68.60;;;;;;4181625;28;20617;-73
2022/03/01 02:19:38;;;;;;;28.98;11.75;;;0.20;68.50;;;;;;4186042;28;20044;-73
2022/03/01 02:21:59;;;;;;;23.73;10.75;;;0.20;68.50;;;;;;4179202;28;20044;-73
2022/03/01 02:24:19;;;;;;;28.65;10.82;;;0.10;68.30;;;;;;4182717;28;20036;-72
2022/03/01 02:26:41;;;;;;;29.77;10.57;;;0.20;68.30;;;;;;4179779;28;20037;-72
2022/03/01 02:29:01;;;;;;;22.35;9.10;;;0.10;68.10;;;;;;4184433;28;20119;-72
2022/03/01 02:31:22;;;;;;;33.15;10.50;;;0.20;68.00;;;;;;4182778;28;20029;-72
2022/03/01 02:33:43;;;;;;;23.95;10.05;;;0.10;67.90;;;;;;4186796;28;20547;-72
2022/03/01 02:36:04;;;;;;;24.67;9.40;;;0.10;68.50;;;;;;4182908;28;20045;-72
2022/03/01 02:38:25;;;;;;;25.40;9.73;;;0.10;67.60;;;;;;4179680;28;20040;-72
2022/03/01 02:40:46;;;;;;;24.67;9.93;;;0.10;67.50;;;;;;4190053;28;20082;-72
2022/03/01 02:43:08;;;;;;;22.60;9.30;;;0.10;67.40;;;;;;4169546;28;20040;-72
2022/03/01 02:45:28;;;;;;;24.08;10.40;;;0.00;67.30;;;;;;4180410;28;20032;-72
2022/03/01 02:47:49;;;;;;;22.45;9.63;;;0.00;67.20;;;;;;4182208;28;20048;-72
2022/03/01 02:50:11;;;;;;;30.20;10.15;;;0.00;67.20;;;;;;4177725;28;20545;-72
2022/03/01 02:52:32;;;;;;;24.00;9.63;;;-0.10;67.10;;;;;;4188393;28;20038;-72
2022/03/01 02:54:53;;;;;;;24.90;10.40;;;-0.10;67.20;;;;;;4187134;28;20032;-72
2022/03/01 02:57:14;;;;;;;23.05;10.00;;;-0.10;67.40;;;;;;4175061;28;20183;-72
2022/03/01 02:59:35;;;;;;;23.98;9.55;;;-0.10;67.50;;;;;;4178797;28;20047;-72
2022/03/01 03:01:56;;;;;;;26.33;10.27;;;-0.20;67.60;;;;;;4181605;28;20040;-72
2022/03/01 03:04:17;;;;;;;25.52;11.23;;;-0.20;67.80;;;;;;4178132;28;20033;-71
2022/03/01 03:06:38;;;;;;;29.52;10.68;;;-0.20;67.90;;;;;;4169871;28;20044;-72
2022/03/01 03:08:59;;;;;;;22.85;9.77;;;-0.20;68.00;;;;;;4177535;28;20553;-71
2022/03/01 03:11:20;;;;;;;22.25;9.18;;;-0.30;68.00;;;;;;4169756;28;20569;-72
2022/03/01 03:13:41;;;;;;;25.48;10.15;;;-0.30;68.10;;;;;;4191315;28;20032;-71
2022/03/01 03:16:03;;;;;;;25.88;10.13;;;-0.30;68.00;;;;;;4172696;28;20032;-71
2022/03/01 03:18:24;;;;;;;29.92;10.77;;;-0.40;68.00;;;;;;4176899;28;20106;-72
2022/03/01 03:20:45;;;;;;;26.15;10.40;;;-0.40;68.00;;;;;;4182433;28;20036;-72
2022/03/01 03:23:06;;;;;;;24.85;10.15;;;-0.40;68.10;;;;;;4183278;28;20059;-72
2022/03/01 03:25:27;;;;;;;29.35;11.77;;;-0.40;68.30;;;;;;4181871;28;20025;-72
2022/03/01 03:27:48;;;;;;;28.52;10.57;;;-0.50;68.20;;;;;;4167275;28;20045;-72
2022/03/01 03:30:10;;;;;;;29.02;11.63;;;-0.40;68.40;;;;;;4184663;28;20040;-72
2022/03/01 03:32:30;;;;;;;26.98;9.88;;;-0.50;68.40;;;;;;4172243;28;20037;-72
2022/03/01 03:34:52;;;;;;;25.48;10.45;;;-0.50;68.40;;;;;;4180467;28;20063;-71
2022/03/01 03:37:13;;;;;;;25.25;10.40;;;-0.50;68.40;;;;;;4172236;28;20468;-72
2022/03/01 03:39:34;;;;;;;27.85;10.60;;;-0.60;68.50;;;;;;4181593;28;20127;-71
2022/03/01 03:41:55;;;;;;;24.45;9.93;;;-0.60;68.70;;;;;;4158311;28;20498;-72
2022/03/01 03:44:16;;;;;;;22.67;9.30;;;-0.60;68.80;;;;;;4183077;28;20154;-72
2022/03/01 03:46:37;;;;;;;26.95;10.52;;;-0.60;69.00;;;;;;4182993;28;20036;-72
2022/03/01 03:48:58;;;;;;;25.58;9.50;;;-0.70;69.00;;;;;;4182277;28;20036;-72
2022/03/01 03:51:19;;;;;;;21.42;9.07;;;-0.70;69.00;;;;;;4177370;28;20608;-72
2022/03/01 03:53:41;;;;;;;23.17;9.30;;;-0.70;69.00;;;;;;4178497;28;20040;-72
2022/03/01 03:56:01;;;;;;;28.45;9.80;;;-0.70;69.00;;;;;;4167357;28;20033;-72
2022/03/01 03:58:22;;;;;;;23.77;9.43;;;-0.70;69.00;;;;;;4170524;28;20040;-72
2022/03/01 04:00:43;;;;;;;23.83;9.32;;;-0.70;69.00;;;;;;4176407;28;20033;-72
2022/03/01 04:03:04;;;;;;;24.02;9.18;;;-0.70;69.00;;;;;;4181431;28;20587;-72
2022/03/01 04:05:25;;;;;;;22.38;9.32;;;-0.80;68.80;;;;;;4183893;28;20119;-72
2022/03/01 04:07:47;;;;;;;30.67;10.32;;;-0.70;68.90;;;;;;4169192;28;20041;-72
2022/03/01 04:10:08;;;;;;;23.92;9.63;;;-0.80;68.80;;;;;;4180581;28;20037;-72
2022/03/01 04:12:29;;;;;;;24.25;9.93;;;-0.80;68.80;;;;;;4182753;28;20074;-72
2022/03/01 04:14:50;;;;;;;26.42;10.18;;;-0.80;68.80;;;;;;4186985;28;20117;-72
2022/03/01 04:17:11;;;;;;;27.17;9.98;;;-0.80;68.80;;;;;;4172443;28;20052;-72
2022/03/01 04:19:32;;;;;;;26.20;9.77;;;-0.90;69.00;;;;;;4182867;28;20922;-72
2022/03/01 04:21:52;;;;;;;27.45;10.75;;;-0.90;69.00;;;;;;4180806;28;20082;-72
2022/03/01 04:24:13;;;;;;;25.88;10.10;;;-0.90;69.30;;;;;;4181279;28;20060;-72
2022/03/01 04:26:34;;;;;;;23.92;9.95;;;-0.90;69.40;;;;;;4181290;28;20620;-72
2022/03/01 04:28:55;;;;;;;23.38;10.05;;;-0.90;69.50;;;;;;4183371;28;20059;-71
2022/03/01 04:31:16;;;;;;;26.27;10.50;;;-0.90;69.60;;;;;;4178123;28;20032;-72
2022/03/01 04:33:37;;;;;;;26.77;10.20;;;-0.90;69.60;;;;;;4183144;28;20033;-72
2022/03/01 04:36:02;;;;;;;27.98;11.23;;;-0.90;69.70;;;;;;4174183;28;20473;-72
2022/03/01 04:38:25;;;;;;;28.23;10.77;;;-0.90;69.80;;;;;;4184686;28;20759;-72
2022/03/01 04:40:46;;;;;;;22.48;9.18;;;-0.90;69.90;;;;;;4162587;28;20036;-71
2022/03/01 04:43:07;;;;;;;25.60;9.85;;;-0.80;70.10;;;;;;4182198;28;20031;-72
2022/03/01 04:45:28;;;;;;;25.85;9.52;;;-0.80;70.10;;;;;;4184228;28;20393;-72
2022/03/01 04:47:49;;;;;;;26.25;10.30;;;-0.80;70.10;;;;;;4182030;28;20032;-72
2022/03/01 04:50:10;;;;;;;27.85;10.95;;;-0.80;70.10;;;;;;4184394;28;20131;-72
2022/03/01 04:52:31;;;;;;;25.23;10.00;;;-0.80;70.00;;;;;;4185451;28;20144;-72
2022/03/01 04:54:52;;;;;;;25.42;10.20;;;-0.80;70.10;;;;;;4172157;28;20577;-72
2022/03/01 04:57:13;;;;;;;25.77;9.85;;;-0.70;70.00;;;;;;4186169;28;20037;-72
2022/03/01 04:59:34;;;;;;;28.65;10.57;;;-0.70;69.90;;;;;;4181752;28;20076;-72
2022/03/01 05:01:55;;;;;;;22.08;9.75;;;-0.70;69.90;;;;;;4173966;28;20041;-72
2022/03/01 05:04:16;;;;;;;24.13;9.93;;;-0.70;69.90;;;;;;4182908;28;20139;-72
2022/03/01 05:06:37;;;;;;;23.80;9.95;;;-0.70;69.90;;;;;;4184703;28;20037;-72
2022/03/01 05:08:57;;;;;;;21.48;8.95;;;-0.60;70.00;;;;;;4167534;28;20167;-72
2022/03/01 05:11:18;;;;;;;23.38;9.27;;;-0.60;69.80;;;;;;4168660;28;20153;-73
2022/03/01 05:13:39;;;;;;;25.90;9.75;;;-0.60;69.70;;;;;;4180566;28;20040;-71
2022/03/01 05:16:00;;;;;;;27.05;10.88;;;-0.60;69.60;;;;;;4184158;28;20287;-72
2022/03/01 05:18:21;;;;;;;26.88;10.45;;;-0.60;69.60;;;;;;4182218;28;20513;-72
2022/03/01 05:20:42;;;;;;;30.45;10.18;;;-0.60;69.40;;;;;;4182846;28;20050;-72
2022/03/01 05:23:03;;;;;;;24.45;9.35;;;-0.60;69.30;;;;;;4183274;28;20060;-72
2022/03/01 05:25:24;;;;;;;27.75;9.20;;;-0.60;69.10;;;;;;4186309;28;20402;-72
2022/03/01 05:27:46;;;;;;;25.30;9.65;;;-0.60;69.00;;;;;;4182194;28;20144;-72
2022/03/01 05:30:09;;;;;;;22.98;9.18;;;-0.60;69.00;;;;;;4181944;28;20083;-72
2022/03/01 05:32:29;;;;;;;24.48;9.85;;;-0.60;68.70;;;;;;4181225;28;20059;-72
2022/03/01 05:34:50;;;;;;;21.80;9.02;;;-0.60;68.60;;;;;;4180713;28;20476;-72
2022/03/01 05:37:11;;;;;;;24.10;8.63;;;-0.60;68.50;;;;;;4184492;28;20052;-72
2022/03/01 05:39:32;;;;;;;23.67;9.02;;;-0.60;68.50;;;;;;4185993;28;20036;-72
2022/03/01 05:41:53;;;;;;;24.75;9.75;;;-0.60;68.50;;;;;;4182443;28;20025;-72
2022/03/01 05:44:14;;;;;;;24.50;9.32;;;-0.60;68.40;;;;;;4183587;28;20071;-71
2022/03/01 05:46:35;;;;;;;25.38;9.20;;;-0.60;68.30;;;;;;4186169;28;20070;-72
2022/03/01 05:48:56;;;;;;;23.15;9.63;;;-0.60;68.30;;;;;;4185766;28;20116;-71
2022/03/01 05:51:18;;;;;;;25.70;9.85;;;-0.60;68.20;;;;;;4182786;28;20029;-72
2022/03/01 05:53:39;;;;;;;22.80;9.10;;;-0.60;68.10;;;;;;4179165;28;20098;-71
2022/03/01 05:56:00;;;;;;;27.50;9.88;;;-0.60;68.10;;;;;;4184600;28;20410;-72
2022/03/01 05:58:21;;;;;;;23.35;8.63;;;-0.60;68.20;;;;;;4177055;28;20439;-72
2022/03/01 06:00:42;;;;;;;22.02;9.60;;;-0.50;68.30;;;;;;4184015;28;20108;-72
2022/03/01 06:03:03;;;;;;;22.95;9.20;;;-0.50;68.20;;;;;;4185513;28;20545;-72
2022/03/01 06:05:24;;;;;;;22.77;9.35;;;-0.50;68.10;;;;;;4183099;28;20072;-72
2022/03/01 06:07:44;;;;;;;29.10;9.77;;;-0.50;68.00;;;;;;4182628;28;20064;-71
2022/03/01 06:10:06;;;;;;;21.98;9.18;;;-0.50;67.90;;;;;;4181642;28;20029;-72
2022/03/01 06:12:27;;;;;;;23.85;9.07;;;-0.40;67.80;;;;;;4188829;28;20035;-72
2022/03/01 06:14:48;;;;;;;51.60;23.25;;;-0.40;67.70;;;;;;4182858;28;20047;-72
2022/03/01 06:17:09;;;;;;;24.73;9.93;;;-0.40;67.50;;;;;;4168664;28;20033;-72
2022/03/01 06:19:30;;;;;;;23.10;9.15;;;-0.40;67.40;;;;;;4181289;28;20041;-72
2022/03/01 06:21:52;;;;;;;27.08;9.98;;;-0.40;67.40;;;;;;4169158;28;20038;-72
2022/03/01 06:24:13;;;;;;;26.27;10.27;;;-0.30;67.30;;;;;;4167775;28;20028;-72
2022/03/01 06:26:33;;;;;;;24.98;9.48;;;-0.30;67.20;;;;;;4178080;28;20418;-72
2022/03/01 06:28:54;;;;;;;26.10;9.45;;;-0.30;67.00;;;;;;4183936;28;20155;-72
2022/03/01 06:31:15;;;;;;;28.20;8.98;;;-0.30;66.90;;;;;;4168291;28;20036;-72
2022/03/01 06:33:36;;;;;;;24.45;9.68;;;-0.20;66.90;;;;;;4178292;28;20611;-72
2022/03/01 06:35:57;;;;;;;27.08;9.23;;;-0.20;66.80;;;;;;4181985;28;20124;-72
2022/03/01 06:38:18;;;;;;;20.63;8.88;;;-0.20;66.70;;;;;;4183550;28;20032;-72
2022/03/01 06:40:39;;;;;;;23.33;10.18;;;-0.20;66.60;;;;;;4185000;28;20071;-71
2022/03/01 06:43:00;;;;;;;23.65;9.38;;;-0.10;66.40;;;;;;4171234;28;20037;-72
2022/03/01 06:45:21;;;;;;;28.85;9.70;;;-0.10;66.30;;;;;;4182956;28;20382;-71
2022/03/01 06:47:42;;;;;;;23.25;8.50;;;-0.10;65.90;;;;;;4180134;28;20465;-72
2022/03/01 06:50:03;;;;;;;23.65;8.75;;;0.00;66.00;;;;;;4184944;28;20028;-72
2022/03/01 06:52:24;;;;;;;25.75;8.98;;;0.00;66.10;;;;;;4180175;28;20054;-72
2022/03/01 06:54:46;;;;;;;22.02;8.60;;;0.10;65.70;;;;;;4185957;28;20094;-72
2022/03/01 06:57:07;;;;;;;23.05;8.75;;;0.10;65.70;;;;;;4187071;28;20047;-72
2022/03/01 06:59:28;;;;;;;21.00;8.32;;;0.10;66.40;;;;;;4185418;28;20041;-72
2022/03/01 07:01:49;;;;;;;26.38;9.05;;;0.30;65.80;;;;;;4180033;28;20063;-72
2022/03/01 07:04:10;;;;;;;21.67;8.65;;;0.30;65.70;;;;;;4181052;28;20064;-72
2022/03/01 07:06:31;;;;;;;29.30;9.85;;;0.30;65.50;;;;;;4166502;28;20032;-73
2022/03/01 07:08:52;;;;;;;22.83;8.80;;;0.40;65.50;;;;;;4179867;28;20078;-72
2022/03/01 07:11:13;;;;;;;23.27;9.35;;;0.50;65.50;;;;;;4179933;28;20117;-73
2022/03/01 07:13:34;;;;;;;22.85;9.30;;;0.50;65.40;;;;;;4182795;28;20391;-73
2022/03/01 07:15:54;;;;;;;24.10;10.07;;;0.70;65.20;;;;;;4171707;28;20119;-73
2022/03/01 07:18:15;;;;;;;18.08;8.15;;;0.70;64.80;;;;;;4158621;28;20076;-73
2022/03/01 07:20:36;;;;;;;22.48;8.52;;;0.80;64.70;;;;;;4179626;28;20040;-72
2022/03/01 07:22:57;;;;;;;22.02;8.15;;;0.90;64.90;;;;;;4183123;28;20040;-73
2022/03/01 07:25:18;;;;;;;21.40;8.43;;;1.00;64.90;;;;;;4171004;28;20528;-73
2022/03/01 07:27:50;;;;;;;18.80;8.25;;;1.10;64.80;;;;;;4170819;28;20573;-73
2022/03/01 07:30:11;;;;;;;23.83;9.45;;;1.20;64.10;;;;;;4166419;28;20025;-73
2022/03/01 07:32:32;;;;;;;20.65;7.93;;;1.20;63.50;;;;;;4180678;28;20040;-73
2022/03/01 07:34:53;;;;;;;26.40;8.95;;;1.30;64.00;;;;;;4179419;28;20199;-73
2022/03/01 07:37:14;;;;;;;24.05;9.15;;;1.40;63.40;;;;;;4183090;28;20029;-73
2022/03/01 07:39:35;;;;;;;21.75;8.77;;;1.40;62.90;;;;;;4183098;28;20127;-73
2022/03/01 07:41:56;;;;;;;21.15;8.75;;;1.50;62.60;;;;;;4167945;28;20029;-72
2022/03/01 07:44:17;;;;;;;21.33;8.50;;;1.50;62.60;;;;;;4183854;28;20405;-72
2022/03/01 07:46:38;;;;;;;21.88;8.25;;;1.60;62.20;;;;;;4184078;28;20656;-72
2022/03/01 07:48:59;;;;;;;21.83;9.20;;;1.60;62.00;;;;;;4182176;28;20152;-72
2022/03/01 07:51:20;;;;;;;21.52;8.13;;;1.60;61.70;;;;;;4179896;28;20021;-73
2022/03/01 07:53:41;;;;;;;19.95;8.68;;;1.70;61.80;;;;;;4176876;28;20123;-73
2022/03/01 07:56:02;;;;;;;22.23;8.75;;;1.70;61.90;;;;;;4173724;28;20398;-73
2022/03/01 07:58:23;;;;;;;23.23;9.15;;;1.80;62.20;;;;;;4181704;28;20588;-73
2022/03/01 08:00:44;;;;;;;19.80;8.23;;;1.80;61.70;;;;;;4178133;28;20147;-72
2022/03/01 08:03:05;;;;;;;22.60;8.93;;;1.80;61.70;;;;;;4177613;28;20033;-73
2022/03/01 08:05:26;;;;;;;22.42;8.13;;;1.90;61.90;;;;;;4169821;28;20099;-73
2022/03/01 08:07:47;;;;;;;20.90;8.35;;;1.90;61.90;;;;;;4182965;28;20510;-73
2022/03/01 08:10:08;;;;;;;25.20;8.50;;;1.90;62.00;;;;;;4186642;28;20043;-72
2022/03/01 08:12:29;;;;;;;19.77;7.45;;;2.00;62.10;;;;;;4185771;28;20448;-73
2022/03/01 08:14:50;;;;;;;14.15;6.75;;;2.10;62.00;;;;;;4188629;28;20653;-73
2022/03/01 08:17:11;;;;;;;17.85;8.00;;;2.10;62.20;;;;;;4186359;28;20555;-73
2022/03/01 08:19:32;;;;;;;22.13;8.85;;;2.20;62.10;;;;;;4183986;28;20033;-73
2022/03/01 08:21:53;;;;;;;25.77;10.52;;;2.10;62.00;;;;;;4174917;28;20029;-73
2022/03/01 08:24:14;;;;;;;30.13;10.23;;;2.20;62.20;;;;;;4184956;28;20037;-73
2022/03/01 08:26:35;;;;;;;33.17;10.65;;;2.30;62.00;;;;;;4183776;28;20037;-73
2022/03/01 08:28:56;;;;;;;24.92;9.57;;;2.40;61.90;;;;;;4185523;28;20036;-73
2022/03/01 08:31:17;;;;;;;23.67;8.77;;;2.40;61.40;;;;;;4183679;28;20041;-73
2022/03/01 08:33:38;;;;;;;23.15;9.13;;;2.50;61.50;;;;;;4184077;28;20104;-73
2022/03/01 08:35:59;;;;;;;20.23;8.80;;;2.50;61.30;;;;;;4167575;28;20045;-73
2022/03/01 08:38:20;;;;;;;25.65;9.35;;;2.60;61.10;;;;;;4166609;28;20545;-73
2022/03/01 08:40:41;;;;;;;17.80;7.97;;;2.60;60.90;;;;;;4180817;28;20041;-72
2022/03/01 08:43:02;;;;;;;20.55;8.77;;;2.70;61.00;;;;;;4169425;28;20164;-73
2022/03/01 08:45:23;;;;;;;20.27;8.73;;;2.70;60.90;;;;;;4182549;28;20110;-73
2022/03/01 08:47:43;;;;;;;22.77;8.50;;;2.80;61.40;;;;;;4180123;28;20067;-73
2022/03/01 08:50:05;;;;;;;21.48;8.23;;;2.90;61.40;;;;;;4182479;28;20063;-73
2022/03/01 08:52:26;;;;;;;18.02;8.02;;;3.00;61.50;;;;;;4180122;28;20112;-72
2022/03/01 08:54:47;;;;;;;19.92;8.88;;;3.10;61.30;;;;;;4181410;28;20036;-72
2022/03/01 08:57:09;;;;;;;17.80;8.32;;;3.20;61.00;;;;;;4183457;28;20037;-73
2022/03/01 08:59:29;;;;;;;23.35;7.97;;;3.30;60.60;;;;;;4171251;28;20112;-72
2022/03/01 09:01:50;;;;;;;22.13;9.52;;;3.30;60.60;;;;;;4184731;28;20036;-72
2022/03/01 09:04:11;;;;;;;19.05;8.40;;;3.40;60.00;;;;;;4178094;28;20040;-73
2022/03/01 09:06:32;;;;;;;22.17;9.57;;;3.40;60.00;;;;;;4178451;28;20028;-73
2022/03/01 09:08:53;;;;;;;23.73;9.70;;;3.50;59.70;;;;;;4179126;28;20032;-72
2022/03/01 09:11:14;;;;;;;23.83;8.55;;;3.60;59.10;;;;;;4177327;28;20036;-73
2022/03/01 09:13:35;;;;;;;21.85;9.55;;;3.60;59.00;;;;;;4171924;28;20410;-72
2022/03/01 09:15:56;;;;;;;85.65;11.95;;;3.70;58.90;;;;;;4178001;28;20037;-73
2022/03/01 09:18:17;;;;;;;19.88;8.52;;;3.70;58.80;;;;;;4169037;28;20079;-73
2022/03/01 09:20:37;;;;;;;40.22;9.13;;;3.80;58.80;;;;;;4179576;28;20518;-73
2022/03/01 09:22:59;;;;;;;21.90;9.10;;;3.80;58.90;;;;;;4180485;28;20036;-73
2022/03/01 09:25:20;;;;;;;22.50;9.25;;;3.80;58.70;;;;;;4181732;28;20040;-73
2022/03/01 09:27:41;;;;;;;23.20;9.30;;;3.90;59.00;;;;;;4181229;28;20397;-73
2022/03/01 09:30:02;;;;;;;126.57;13.65;;;3.90;58.20;;;;;;4180071;28;20050;-73
2022/03/01 09:32:24;;;;;;;24.45;9.05;;;4.00;58.20;;;;;;4182478;28;20055;-73
2022/03/01 09:34:45;;;;;;;27.35;8.93;;;4.00;58.30;;;;;;4181864;28;20490;-76
2022/03/01 09:37:06;;;;;;;39.38;8.98;;;4.00;58.00;;;;;;4182813;28;20044;-74
2022/03/01 09:39:27;;;;;;;31.15;9.15;;;4.10;57.90;;;;;;4179413;28;20094;-74
2022/03/01 09:41:48;;;;;;;21.90;9.02;;;4.20;58.10;;;;;;4178135;28;20140;-74
2022/03/01 09:44:09;;;;;;;23.15;8.38;;;4.20;57.70;;;;;;4182569;28;20142;-74
2022/03/01 09:46:30;;;;;;;26.95;9.18;;;4.30;57.30;;;;;;4177342;28;20417;-74
2022/03/01 09:48:51;;;;;;;21.90;9.07;;;4.30;56.70;;;;;;4180251;28;20453;-74
2022/03/01 09:51:12;;;;;;;20.38;8.65;;;4.40;56.80;;;;;;4180075;28;20116;-74
2022/03/01 09:53:33;;;;;;;20.83;9.02;;;4.40;56.90;;;;;;4178460;28;20064;-74
2022/03/01 09:55:55;;;;;;;25.60;9.90;;;4.50;56.10;;;;;;4179142;28;20537;-74
2022/03/01 09:58:16;;;;;;;17.77;8.70;;;4.50;55.80;;;;;;4179733;28;20045;-74
2022/03/01 10:00:37;;;;;;;21.50;9.80;;;4.60;56.10;;;;;;4180730;28;20044;-74
2022/03/01 10:02:58;;;;;;;20.35;8.43;;;4.60;56.20;;;;;;4176278;28;20127;-74
2022/03/01 10:05:29;;;;;;;17.77;8.40;;;4.70;56.00;;;;;;4177143;28;20033;-74
2022/03/01 10:07:51;;;;;;;19.10;8.38;;;4.80;56.10;;;;;;4179943;28;20059;-74
2022/03/01 10:10:16;;;;;;;19.70;8.07;;;4.90;56.00;;;;;;4170998;28;20041;-74
2022/03/01 10:12:37;;;;;;;23.80;7.90;;;5.00;55.60;;;;;;4177461;28;20481;-74
2022/03/01 10:15:02;;;;;;;18.52;8.85;;;5.10;55.80;;;;;;4178438;28;20036;-74
2022/03/01 10:17:23;;;;;;;17.10;7.70;;;5.10;55.50;;;;;;4170938;28;20091;-74
2022/03/01 10:19:44;;;;;;;21.55;9.73;;;5.20;55.40;;;;;;4164486;28;21209;-74
2022/03/01 10:22:05;;;;;;;21.73;8.93;;;5.20;55.00;;;;;;4181942;28;20141;-74
2022/03/01 10:24:27;;;;;;;22.65;9.48;;;5.30;53.90;;;;;;4167763;28;20033;-74
2022/03/01 10:26:49;;;;;;;23.08;9.38;;;5.30;54.50;;;;;;4179057;28;20041;-74
2022/03/01 10:29:10;;;;;;;18.80;9.00;;;5.30;53.50;;;;;;4169895;28;20413;-73
2022/03/01 10:31:33;;;;;;;19.40;9.27;;;5.30;53.90;;;;;;4179931;28;20042;-74
2022/03/01 10:34:05;;;;;;;24.73;9.07;;;5.20;53.40;;;;;;4179006;28;20068;-74
2022/03/01 10:36:31;;;;;;;22.83;9.07;;;5.20;53.50;;;;;;4166135;28;20045;-73
2022/03/01 10:39:11;;;;;;;22.63;9.15;;;5.20;53.20;;;;;;4179970;28;20041;-74
2022/03/01 10:41:34;;;;;;;20.23;8.80;;;5.20;54.40;;;;;;4179945;28;20055;-74
2022/03/01 10:43:59;;;;;;;19.05;8.27;;;5.20;54.50;;;;;;4176508;28;20066;-73
2022/03/01 10:46:20;;;;;;;19.75;8.15;;;5.20;54.80;;;;;;4180601;28;20021;-73
2022/03/01 10:48:41;;;;;;;24.58;9.13;;;5.30;54.50;;;;;;4180280;28;20033;-73
2022/03/01 10:51:05;;;;;;;19.95;8.38;;;5.30;54.40;;;;;;4178279;28;20883;-74
2022/03/01 10:53:33;;;;;;;;;;;5.30;54.00;;;;;;4176412;28;20064;-74
2022/03/01 10:55:59;;;;;;;26.20;9.18;;;5.30;53.90;;;;;;4176636;28;20437;-73
2022/03/01 10:58:22;;;;;;;26.17;8.70;;;5.40;54.10;;;;;;4180548;28;20058;-73
2022/03/01 11:00:43;;;;;;;20.85;8.88;;;5.40;54.40;;;;;;4166676;28;20575;-74
2022/03/01 11:03:05;;;;;;;29.25;9.32;;;5.50;54.60;;;;;;4180496;28;20072;-74
2022/03/01 11:05:28;;;;;;;22.17;8.73;;;5.50;54.40;;;;;;4174587;28;20040;-73
2022/03/01 11:07:50;;;;;;;20.02;8.77;;;5.50;54.00;;;;;;4184080;28;20046;-73
2022/03/01 11:10:12;;;;;;;19.30;8.45;;;5.60;54.20;;;;;;4166994;28;20025;-73
2022/03/01 11:12:34;;;;;;;21.85;9.77;;;5.60;54.00;;;;;;4179626;28;20071;-73
2022/03/01 11:15:18;;;;;;;21.48;9.90;;;5.70;53.90;;;;;;4170451;28;20089;-74
2022/03/01 11:17:51;;;;;;;21.20;9.75;;;5.70;53.00;;;;;;4179882;28;20036;-73
2022/03/01 11:20:30;;;;;;;19.60;9.05;;;5.80;53.80;;;;;;4179413;28;20052;-74
2022/03/01 11:22:58;;;;;;;21.45;9.20;;;5.80;52.30;;;;;;4166162;28;20501;-73
2022/03/01 11:25:23;;;;;;;23.25;9.70;;;5.90;52.10;;;;;;4169796;28;20040;-74
2022/03/01 11:27:46;;;;;;;28.33;10.13;;;5.80;52.40;;;;;;4179215;28;20025;-74
2022/03/01 11:30:08;;;;;;;27.88;10.35;;;5.80;52.00;;;;;;4164497;28;20032;-74
2022/03/01 11:32:37;;;;;;;21.90;10.00;;;5.80;52.70;;;;;;4176582;28;20494;-74
2022/03/01 11:35:02;;;;;;;20.20;9.52;;;5.80;52.00;;;;;;4165371;28;20119;-74
2022/03/01 11:37:23;;;;;;;20.05;9.55;;;5.80;52.20;;;;;;4172072;28;20039;-74
2022/03/01 11:39:53;;;;;;;24.92;9.27;;;5.80;52.10;;;;;;4169979;28;20636;-74
2022/03/01 11:42:17;;;;;;;19.63;8.88;;;5.80;52.50;;;;;;4162994;28;20473;-74
2022/03/01 11:44:40;;;;;;;;;;;5.80;53.30;;;;;;4178840;28;20447;-74
2022/03/01 11:47:07;;;;;;;22.50;9.70;;;5.90;53.00;;;;;;4165786;28;19912;-74
2022/03/01 11:49:31;;;;;;;20.35;9.50;;;5.90;53.30;;;;;;4177317;28;20040;-74
2022/03/01 11:51:55;;;;;;;27.13;10.85;;;6.00;53.40;;;;;;4165015;28;20044;-74
2022/03/01 11:54:20;;;;;;;25.55;9.93;;;6.00;53.00;;;;;;4177174;28;20032;-74
2022/03/01 11:56:41;;;;;;;;;;;6.10;52.70;;;;;;4178266;28;20246;-74
2022/03/01 11:59:09;;;;;;;18.65;8.50;;;6.10;52.30;;;;;;4180113;28;19920;-74
2022/03/01 12:01:32;;;;;;;27.92;9.48;;;6.10;53.30;;;;;;4178767;28;20039;-74
2022/03/01 12:03:53;;;;;;;20.63;9.48;;;6.20;53.30;;;;;;4175970;28;20128;-74
2022/03/01 12:06:13;;;;;;;20.05;8.93;;;6.20;52.20;;;;;;4175976;28;20158;-74
2022/03/01 12:08:37;;;;;;;21.20;10.00;;;6.20;52.40;;;;;;4176722;28;20115;-73
2022/03/01 12:11:04;;;;;;;26.58;9.68;;;6.20;52.90;;;;;;4163003;28;20045;-74